createdAt,value
2018-10-09T00:02:06.909Z,5.37
2018-10-09T00:05:12.442Z,5.17
2018-10-09T00:08:17.897Z,4.87
2018-10-09T00:11:25.515Z,4.13
2018-10-09T00:14:31.006Z,5.57
2018-10-09T00:17:37.470Z,6.30
2018-10-09T00:20:42.882Z,5.27
2018-10-09T00:23:48.389Z,4.90
2018-10-09T00:26:53.785Z,5.83
2018-10-09T00:29:59.223Z,6.17
2018-10-09T00:33:04.726Z,5.33
2018-10-09T00:36:10.141Z,7.40
2018-10-09T00:39:16.145Z,5.50
2018-10-09T00:42:21.583Z,5.60
2018-10-09T00:45:27.088Z,5.87
2018-10-09T00:48:32.839Z,6.50
2018-10-09T00:51:38.270Z,9.60
2018-10-09T00:54:45.870Z,6.63
2018-10-09T00:57:51.281Z,7.90
2018-10-09T01:00:56.714Z,11.53
2018-10-09T01:04:02.509Z,8.27
2018-10-09T01:07:08.172Z,10.50
2018-10-09T01:10:13.594Z,7.23
2018-10-09T01:13:19.014Z,12.27
2018-10-09T01:16:24.433Z,8.00
2018-10-09T01:19:30.002Z,8.13
2018-10-09T01:22:35.486Z,9.83
2018-10-09T01:25:40.906Z,8.47
2018-10-09T01:28:46.297Z,7.63
2018-10-09T01:31:52.470Z,8.07
2018-10-09T01:34:57.970Z,7.67
2018-10-09T01:38:04.246Z,8.87
2018-10-09T01:41:09.682Z,8.53
2018-10-09T01:44:15.125Z,8.97
2018-10-09T01:47:20.545Z,8.90
2018-10-09T01:50:25.954Z,10.77
2018-10-09T01:53:31.373Z,8.47
2018-10-09T01:56:37.254Z,12.40
2018-10-09T01:59:42.651Z,10.73
2018-10-09T02:02:48.161Z,9.17
2018-10-09T02:05:53.898Z,9.67
2018-10-09T02:08:59.353Z,10.27
2018-10-09T02:12:04.793Z,7.97
2018-10-09T02:15:10.274Z,10.07
2018-10-09T02:18:15.768Z,9.87
2018-10-09T02:21:21.216Z,12.30
2018-10-09T02:24:26.721Z,11.57
2018-10-09T02:27:32.141Z,12.80
2018-10-09T02:30:37.529Z,9.70
2018-10-09T02:33:43.226Z,10.63
2018-10-09T02:36:49.043Z,11.37
2018-10-09T02:39:54.458Z,10.23
2018-10-09T02:42:59.933Z,8.80
2018-10-09T02:46:05.361Z,9.30
2018-10-09T02:49:10.802Z,10.00
2018-10-09T02:52:16.199Z,9.70
2018-10-09T02:55:21.722Z,10.43
2018-10-09T02:58:27.145Z,8.93
2018-10-09T03:01:32.537Z,9.00
2018-10-09T03:04:38.070Z,11.10
2018-10-09T03:07:43.477Z,9.63
2018-10-09T03:10:48.889Z,10.17
2018-10-09T03:13:54.408Z,9.63
2018-10-09T03:16:59.795Z,9.20
2018-10-09T03:20:05.573Z,9.43
2018-10-09T03:23:11.038Z,10.50
2018-10-09T03:26:17.210Z,11.03
2018-10-09T03:29:22.641Z,9.10
2018-10-09T03:32:28.025Z,8.43
2018-10-09T03:35:33.829Z,8.80
2018-10-09T03:38:39.279Z,9.23
2018-10-09T03:41:44.693Z,7.63
2018-10-09T03:44:50.243Z,7.97
2018-10-09T03:47:55.649Z,8.37
2018-10-09T03:51:01.576Z,8.83
2018-10-09T03:54:07.528Z,10.77
2018-10-09T03:57:13.229Z,8.03
2018-10-09T04:00:18.673Z,8.27
2018-10-09T04:03:24.128Z,11.33
2018-10-09T04:06:29.557Z,8.43
2018-10-09T04:09:35.012Z,9.03
2018-10-09T04:12:40.769Z,8.07
2018-10-09T04:15:46.289Z,9.37
2018-10-09T04:18:51.725Z,8.60
2018-10-09T04:21:57.153Z,10.80
2018-10-09T04:25:02.585Z,7.90
2018-10-09T04:28:08.170Z,11.30
2018-10-09T04:31:13.561Z,12.37
2018-10-09T04:34:19.033Z,7.67
2018-10-09T04:37:24.454Z,9.77
2018-10-09T04:40:29.837Z,9.13
2018-10-09T04:43:35.392Z,10.17
2018-10-09T04:46:41.145Z,9.20
2018-10-09T04:49:46.562Z,10.93
2018-10-09T04:52:52.257Z,10.07
2018-10-09T04:55:57.817Z,10.07
2018-10-09T04:59:03.233Z,9.83
2018-10-09T05:02:08.701Z,9.90
2018-10-09T05:05:14.160Z,11.50
2018-10-09T05:08:19.581Z,11.03
2018-10-09T05:11:24.976Z,10.83
2018-10-09T05:14:30.538Z,12.80
2018-10-09T05:17:37.131Z,9.30
2018-10-09T05:20:42.545Z,9.63
2018-10-09T05:23:48.732Z,12.47
2018-10-09T05:26:54.133Z,13.97
2018-10-09T05:29:59.834Z,13.50
2018-10-09T05:33:05.333Z,10.87
2018-10-09T05:36:10.756Z,13.00
2018-10-09T05:39:16.181Z,11.10
2018-10-09T05:42:21.626Z,15.33
2018-10-09T05:45:27.056Z,11.97
2018-10-09T05:48:32.597Z,16.43
2018-10-09T05:51:38.018Z,14.40
2018-10-09T05:54:43.582Z,14.70
2018-10-09T05:57:49.023Z,11.83
2018-10-09T06:00:54.646Z,14.00
2018-10-09T06:04:00.117Z,11.50
2018-10-09T06:07:05.886Z,14.13
2018-10-09T06:10:11.677Z,12.27
2018-10-09T06:13:17.174Z,14.47
2018-10-09T06:16:22.617Z,11.83
2018-10-09T06:19:28.013Z,18.37
2018-10-09T06:22:33.533Z,14.17
2018-10-09T06:25:38.990Z,12.03
2018-10-09T06:28:44.406Z,14.30
2018-10-09T06:31:49.848Z,13.10
2018-10-09T06:34:56.058Z,18.07
2018-10-09T06:38:01.710Z,15.10
2018-10-09T06:41:07.253Z,13.60
2018-10-09T06:44:13.202Z,12.67
2018-10-09T06:47:18.661Z,16.93
2018-10-09T06:50:24.794Z,18.27
2018-10-09T06:53:30.544Z,13.70
2018-10-09T06:56:36.200Z,12.80
2018-10-09T06:59:42.167Z,15.00
2018-10-09T07:02:47.670Z,15.57
2018-10-09T07:05:53.866Z,15.60
2018-10-09T07:08:59.932Z,19.77
2018-10-09T07:12:05.451Z,19.13
2018-10-09T07:15:13.629Z,18.97
2018-10-09T07:18:30.563Z,17.00
2018-10-09T07:21:36.016Z,15.93
2018-10-09T07:24:41.575Z,16.50
2018-10-09T07:27:47.154Z,16.43
2018-10-09T07:30:52.770Z,17.77
2018-10-09T07:33:58.226Z,16.07
2018-10-09T07:37:03.662Z,18.10
2018-10-09T07:40:09.090Z,20.87
2018-10-09T07:43:14.523Z,19.00
2018-10-09T07:46:19.994Z,17.13
2018-10-09T07:49:25.414Z,16.77
2018-10-09T07:52:30.853Z,19.67
2018-10-09T07:55:36.285Z,24.13
2018-10-09T07:58:41.852Z,26.17
2018-10-09T08:01:47.415Z,25.43
2018-10-09T08:04:53.018Z,23.67
2018-10-09T08:07:58.583Z,18.50
2018-10-09T08:11:04.031Z,22.37
2018-10-09T08:14:10.225Z,23.77
2018-10-09T08:17:15.673Z,20.37
2018-10-09T08:20:21.098Z,19.53
2018-10-09T08:23:26.597Z,19.43
2018-10-09T08:26:32.002Z,21.63
2018-10-09T08:29:38.325Z,20.10
2018-10-09T08:32:43.874Z,16.47
2018-10-09T08:35:49.526Z,22.10
2018-10-09T08:38:54.962Z,19.13
2018-10-09T08:42:00.539Z,18.10
2018-10-09T08:45:07.476Z,20.40
2018-10-09T08:48:12.923Z,17.83
2018-10-09T08:51:18.342Z,20.23
2018-10-09T08:54:23.806Z,19.17
2018-10-09T08:57:29.326Z,20.13
2018-10-09T09:00:35.210Z,17.37
2018-10-09T09:03:40.686Z,14.43
2018-10-09T09:06:46.302Z,13.37
2018-10-09T09:09:51.704Z,19.33
2018-10-09T09:12:57.131Z,15.70
2018-10-09T09:16:02.662Z,14.80
2018-10-09T09:19:08.078Z,12.40
2018-10-09T09:22:13.578Z,11.67
2018-10-09T09:25:19.019Z,13.57
2018-10-09T09:28:24.614Z,13.57
2018-10-09T09:31:30.369Z,16.73
2018-10-09T09:34:36.235Z,20.57
2018-10-09T09:37:41.650Z,20.27
2018-10-09T09:40:47.427Z,20.60
2018-10-09T09:43:52.876Z,22.97
2018-10-09T09:46:58.339Z,18.97
2018-10-09T09:50:04.646Z,22.50
2018-10-09T09:53:10.451Z,23.23
2018-10-09T09:56:16.058Z,20.87
2018-10-09T09:59:21.540Z,24.00
2018-10-09T10:02:27.121Z,21.50
2018-10-09T10:05:33.155Z,17.20
2018-10-09T10:08:39.146Z,20.17
2018-10-09T10:11:44.549Z,24.87
2018-10-09T10:14:49.995Z,25.43
2018-10-09T10:17:55.421Z,20.00
2018-10-09T10:21:00.823Z,20.27
2018-10-09T10:24:06.323Z,19.23
2018-10-09T10:27:12.085Z,20.13
2018-10-09T10:30:17.629Z,17.87
2018-10-09T10:33:23.214Z,22.60
2018-10-09T10:36:28.664Z,20.63
2018-10-09T10:39:34.282Z,21.47
2018-10-09T10:42:39.758Z,19.63
2018-10-09T10:45:45.242Z,22.17
2018-10-09T10:49:03.632Z,18.67
2018-10-09T10:52:09.612Z,25.77
2018-10-09T10:55:15.114Z,22.47
2018-10-09T10:58:20.602Z,20.90
2018-10-09T11:01:26.097Z,22.10
2018-10-09T11:04:31.758Z,19.57
2018-10-09T11:07:37.526Z,23.63
2018-10-09T11:10:42.987Z,17.37
2018-10-09T11:13:48.918Z,19.80
2018-10-09T11:16:54.327Z,17.27
2018-10-09T11:19:59.753Z,19.97
2018-10-09T11:23:05.327Z,17.00
2018-10-09T11:26:11.205Z,20.37
2018-10-09T11:29:17.149Z,17.63
2018-10-09T11:32:23.119Z,19.97
2018-10-09T11:35:28.755Z,17.80
2018-10-09T11:38:34.424Z,16.10
2018-10-09T11:41:39.917Z,17.67
2018-10-09T11:44:45.495Z,18.53
2018-10-09T11:47:50.921Z,17.27
2018-10-09T11:50:56.603Z,20.27
2018-10-09T11:54:02.032Z,15.77
2018-10-09T11:57:07.821Z,18.17
2018-10-09T12:00:13.463Z,14.67
2018-10-09T12:03:18.919Z,14.43
2018-10-09T12:06:24.730Z,13.80
2018-10-09T12:09:30.214Z,12.10
2018-10-09T12:12:37.863Z,15.83
2018-10-09T12:15:43.320Z,11.97
2018-10-09T12:18:48.950Z,12.43
2018-10-09T12:21:54.385Z,12.97
2018-10-09T12:24:59.855Z,11.47
2018-10-09T12:28:05.287Z,10.50
2018-10-09T12:31:10.725Z,10.03
2018-10-09T12:34:16.234Z,10.30
2018-10-09T12:37:21.655Z,12.00
2018-10-09T12:40:27.037Z,10.13
2018-10-09T12:43:34.418Z,9.33
2018-10-09T12:46:43.999Z,10.80
2018-10-09T12:49:49.442Z,13.20
2018-10-09T12:52:54.910Z,10.80
2018-10-09T12:56:00.546Z,10.07
2018-10-09T12:59:06.118Z,11.23
2018-10-09T13:02:11.756Z,8.47
2018-10-09T13:05:17.167Z,8.30
2018-10-09T13:08:22.594Z,11.50
2018-10-09T13:11:27.978Z,9.70
2018-10-09T13:14:34.098Z,9.93
2018-10-09T13:17:40.071Z,9.90
2018-10-09T13:20:45.735Z,12.13
2018-10-09T13:23:51.320Z,11.37
2018-10-09T13:26:57.115Z,12.73
2018-10-09T13:30:02.748Z,9.57
2018-10-09T13:33:08.197Z,9.27
2018-10-09T13:36:13.644Z,9.53
2018-10-09T13:39:19.401Z,10.17
2018-10-09T13:42:24.851Z,10.63
2018-10-09T13:45:30.278Z,12.43
2018-10-09T13:48:36.806Z,10.37
2018-10-09T13:51:42.323Z,10.77
2018-10-09T13:54:47.849Z,7.43
2018-10-09T13:57:53.323Z,8.20
2018-10-09T14:00:58.764Z,10.60
2018-10-09T14:04:04.199Z,10.33
2018-10-09T14:07:09.610Z,10.97
2018-10-09T14:10:15.106Z,11.40
2018-10-09T14:13:20.668Z,11.03
2018-10-09T14:16:26.114Z,11.37
2018-10-09T14:19:31.739Z,10.30
2018-10-09T14:22:37.232Z,11.60
2018-10-09T14:25:42.873Z,10.33
2018-10-09T14:28:48.640Z,10.70
2018-10-09T14:31:54.054Z,12.00
2018-10-09T14:34:59.556Z,12.50
2018-10-09T14:38:05.251Z,10.23
2018-10-09T14:41:10.646Z,12.30
2018-10-09T14:44:16.115Z,11.97
2018-10-09T14:47:21.505Z,12.67
2018-10-09T14:50:26.899Z,9.20
2018-10-09T14:53:32.298Z,12.87
2018-10-09T14:56:39.807Z,10.07
2018-10-09T14:59:45.530Z,10.77
2018-10-09T15:02:51.528Z,12.07
2018-10-09T15:05:57.251Z,11.83
2018-10-09T15:09:02.690Z,11.20
2018-10-09T15:12:09.514Z,14.97
2018-10-09T15:15:16.039Z,9.70
2018-10-09T15:18:21.434Z,14.17
2018-10-09T15:21:27.219Z,12.60
2018-10-09T15:24:32.706Z,10.37
2018-10-09T15:27:38.166Z,14.40
2018-10-09T15:30:43.548Z,12.23
2018-10-09T15:33:48.971Z,16.50
2018-10-09T15:36:54.406Z,12.33
2018-10-09T15:39:59.887Z,11.57
2018-10-09T15:43:05.343Z,11.83
2018-10-09T15:46:10.993Z,12.07
2018-10-09T15:49:16.390Z,12.27
2018-10-09T15:52:21.810Z,9.53
2018-10-09T15:55:27.211Z,18.10
2018-10-09T15:58:32.633Z,15.03
2018-10-09T16:01:38.039Z,11.90
2018-10-09T16:04:43.495Z,14.47
2018-10-09T16:07:50.382Z,13.30
2018-10-09T16:10:57.975Z,13.00
2018-10-09T16:14:04.352Z,13.83
2018-10-09T16:17:10.111Z,13.67
2018-10-09T16:20:15.482Z,12.07
2018-10-09T16:23:20.894Z,13.70
2018-10-09T16:26:26.285Z,14.93
2018-10-09T16:29:32.263Z,14.20
2018-10-09T16:32:37.910Z,14.27
2018-10-09T16:35:43.447Z,12.37
2018-10-09T16:38:49.453Z,12.97
2018-10-09T16:41:55.826Z,14.37
2018-10-09T16:45:01.315Z,15.50
2018-10-09T16:48:07.582Z,13.60
2018-10-09T16:51:13.023Z,10.80
2018-10-09T16:54:18.495Z,14.93
2018-10-09T16:57:23.923Z,11.00
2018-10-09T17:00:29.975Z,11.83
2018-10-09T17:03:35.604Z,10.20
2018-10-09T17:06:41.063Z,11.93
2018-10-09T17:09:46.707Z,13.67
2018-10-09T17:12:52.229Z,9.37
2018-10-09T17:15:57.634Z,11.40
2018-10-09T17:19:03.830Z,13.07
2018-10-09T17:22:09.242Z,12.97
2018-10-09T17:25:14.701Z,9.00
2018-10-09T17:28:20.136Z,13.67
2018-10-09T17:31:25.721Z,12.20
2018-10-09T17:34:31.163Z,12.97
2018-10-09T17:37:36.591Z,11.57
2018-10-09T17:40:42.013Z,12.47
2018-10-09T17:43:47.501Z,11.70
2018-10-09T17:46:52.908Z,11.83
2018-10-09T17:49:58.583Z,10.40
2018-10-09T17:53:04.061Z,12.30
2018-10-09T17:56:09.521Z,11.63
2018-10-09T17:59:14.958Z,11.83
2018-10-09T18:02:20.422Z,11.37
2018-10-09T18:05:26.019Z,10.07
2018-10-09T18:08:31.488Z,9.77
2018-10-09T18:11:36.964Z,12.37
2018-10-09T18:14:42.434Z,11.27
2018-10-09T18:17:48.014Z,9.93
2018-10-09T18:20:53.461Z,11.00
2018-10-09T18:23:58.894Z,12.97
2018-10-09T18:27:04.303Z,12.33
2018-10-09T18:30:11.207Z,10.80
2018-10-09T18:33:18.813Z,12.60
2018-10-09T18:36:27.230Z,10.97
2018-10-09T18:39:35.993Z,15.67
2018-10-09T18:42:52.512Z,13.30
2018-10-09T18:46:02.924Z,11.60
2018-10-09T18:49:11.919Z,11.93
2018-10-09T18:52:19.534Z,12.87
2018-10-09T18:55:28.841Z,12.13
2018-10-09T18:58:36.731Z,13.47
2018-10-09T19:01:42.148Z,12.13
2018-10-09T19:04:47.655Z,13.87
2018-10-09T19:07:53.379Z,16.37
2018-10-09T19:10:58.794Z,13.97
2018-10-09T19:14:05.109Z,14.10
2018-10-09T19:17:10.542Z,17.30
2018-10-09T19:20:15.966Z,14.60
2018-10-09T19:23:21.417Z,13.40
2018-10-09T19:26:26.854Z,13.67
2018-10-09T19:29:32.306Z,16.90
2018-10-09T19:32:38.331Z,15.37
2018-10-09T19:35:43.878Z,16.37
2018-10-09T19:38:49.309Z,14.90
2018-10-09T19:41:54.766Z,15.27
2018-10-09T19:45:00.268Z,14.30
2018-10-09T19:48:05.714Z,18.43
2018-10-09T19:51:11.305Z,16.93
2018-10-09T19:54:16.806Z,18.73
2018-10-09T19:57:22.220Z,17.80
2018-10-09T20:00:27.651Z,17.00
2018-10-09T20:03:33.079Z,18.47
2018-10-09T20:06:38.549Z,17.23
2018-10-09T20:09:43.950Z,15.37
2018-10-09T20:12:49.362Z,16.80
2018-10-09T20:15:54.854Z,17.53
2018-10-09T20:19:00.279Z,17.77
2018-10-09T20:22:08.698Z,16.50
2018-10-09T20:25:14.287Z,19.73
2018-10-09T20:28:19.709Z,17.77
2018-10-09T20:31:25.550Z,19.60
2018-10-09T20:34:31.050Z,16.90
2018-10-09T20:37:38.546Z,18.07
2018-10-09T20:40:46.026Z,20.83
2018-10-09T20:43:51.654Z,19.17
2018-10-09T20:46:57.081Z,15.07
2018-10-09T20:50:02.528Z,17.73
2018-10-09T20:53:08.068Z,17.40
2018-10-09T20:56:13.478Z,14.37
2018-10-09T20:59:18.909Z,17.30
2018-10-09T21:02:24.346Z,17.93
2018-10-09T21:05:31.829Z,18.20
2018-10-09T21:08:39.587Z,18.43
2018-10-09T21:11:45.023Z,16.80
2018-10-09T21:14:50.712Z,19.70
2018-10-09T21:17:56.198Z,17.50
2018-10-09T21:21:01.816Z,16.77
2018-10-09T21:24:07.306Z,18.97
2018-10-09T21:27:13.459Z,15.43
2018-10-09T21:30:18.921Z,15.87
2018-10-09T21:33:24.442Z,18.17
2018-10-09T21:36:29.848Z,19.13
2018-10-09T21:39:35.457Z,17.07
2018-10-09T21:42:41.005Z,15.27
2018-10-09T21:45:46.650Z,17.73
2018-10-09T21:48:52.058Z,17.73
2018-10-09T21:51:57.467Z,16.73
2018-10-09T21:55:02.904Z,17.13
2018-10-09T21:58:08.295Z,17.30
2018-10-09T22:01:13.933Z,19.70
2018-10-09T22:04:19.386Z,17.47
2018-10-09T22:07:24.817Z,16.67
2018-10-09T22:10:30.198Z,17.00
2018-10-09T22:13:35.963Z,17.33
2018-10-09T22:16:41.526Z,14.77
2018-10-09T22:19:47.882Z,17.30
2018-10-09T22:22:54.027Z,13.60
2018-10-09T22:25:59.762Z,18.07
2018-10-09T22:29:05.178Z,15.97
2018-10-09T22:32:10.623Z,17.20
2018-10-09T22:35:16.578Z,13.40
2018-10-09T22:38:22.026Z,16.33
2018-10-09T22:41:27.444Z,14.27
2018-10-09T22:44:32.981Z,15.80
2018-10-09T22:47:38.425Z,16.03
2018-10-09T22:50:43.920Z,15.00
2018-10-09T22:53:49.434Z,13.00
2018-10-09T22:56:55.038Z,15.60
2018-10-09T23:00:00.502Z,15.10
2018-10-09T23:03:05.974Z,13.77
2018-10-09T23:06:11.392Z,13.47
2018-10-09T23:09:16.819Z,14.43
2018-10-09T23:12:22.211Z,18.20
2018-10-09T23:15:27.630Z,13.57
2018-10-09T23:18:33.032Z,18.30
2018-10-09T23:21:38.463Z,12.03
2018-10-09T23:24:44.000Z,12.73
2018-10-09T23:27:49.427Z,14.17
2018-10-09T23:30:54.838Z,14.17
2018-10-09T23:34:00.314Z,13.23
2018-10-09T23:37:06.078Z,12.17
2018-10-09T23:40:11.487Z,15.77
2018-10-09T23:43:16.986Z,12.50
2018-10-09T23:46:22.623Z,17.17
2018-10-09T23:49:28.022Z,14.97
2018-10-09T23:52:34.047Z,13.87
2018-10-09T23:55:39.470Z,12.10
2018-10-09T23:58:44.910Z,14.27
